createdAt,value
2022-10-01T04:00:31.591Z,999.04
2022-10-01T04:01:31.978Z,999.02
2022-10-01T04:02:31.652Z,998.91
2022-10-01T04:03:31.515Z,999.04
2022-10-01T04:04:31.498Z,998.92
2022-10-01T04:05:31.489Z,998.94
2022-10-01T04:06:31.479Z,998.97
2022-10-01T04:07:31.473Z,998.97
2022-10-01T04:08:31.452Z,998.86
2022-10-01T04:09:31.443Z,998.90
2022-10-01T04:10:31.435Z,998.89
2022-10-01T04:11:36.738Z,998.91
2022-10-01T04:12:31.424Z,998.91
2022-10-01T04:13:31.398Z,998.88
2022-10-01T04:14:31.388Z,998.88
2022-10-01T04:15:31.392Z,998.93
2022-10-01T04:16:31.424Z,998.88
2022-10-01T04:17:31.360Z,999.01
2022-10-01T04:18:31.373Z,998.95
2022-10-01T04:19:31.335Z,998.97
2022-10-01T04:20:31.324Z,998.95
2022-10-01T04:21:31.594Z,998.98
2022-10-01T04:22:36.335Z,998.93
2022-10-01T04:23:31.289Z,998.94
2022-10-01T04:24:31.280Z,998.92
2022-10-01T04:25:31.262Z,999.01
2022-10-01T04:26:31.257Z,999.04
2022-10-01T04:27:31.249Z,999.02
2022-10-01T04:28:31.352Z,999.03
2022-10-01T04:29:31.216Z,999.01
2022-10-01T04:30:31.209Z,999.04
2022-10-01T04:31:31.388Z,999.02
2022-10-01T04:32:31.212Z,998.98
2022-10-01T04:33:36.193Z,998.97
2022-10-01T04:34:31.161Z,999.03
2022-10-01T04:35:31.151Z,998.92
2022-10-01T04:36:31.139Z,999.01
2022-10-01T04:37:31.138Z,998.81
2022-10-01T04:38:31.115Z,998.82
2022-10-01T04:39:31.104Z,998.95
2022-10-01T04:40:31.093Z,998.84
2022-10-01T04:41:31.474Z,998.83
2022-10-01T04:42:31.081Z,998.82
2022-10-01T04:43:31.069Z,998.74
2022-10-01T04:44:36.072Z,998.75
2022-10-01T04:45:31.038Z,998.74
2022-10-01T04:46:31.126Z,998.76
2022-10-01T04:47:34.532Z,998.77
2022-10-01T04:48:32.026Z,998.72
2022-10-01T04:49:30.990Z,998.75
2022-10-01T04:50:30.981Z,998.74
2022-10-01T04:51:31.144Z,998.79
2022-10-01T04:52:30.962Z,998.75
2022-10-01T04:53:30.959Z,998.70
2022-10-01T04:54:30.938Z,998.77
2022-10-01T04:55:35.947Z,998.77
2022-10-01T04:56:30.913Z,998.80
2022-10-01T04:57:30.901Z,998.73
2022-10-01T04:58:30.902Z,998.75
2022-10-01T04:59:30.880Z,998.69
2022-10-01T05:00:30.877Z,998.63
2022-10-01T05:01:31.060Z,998.75
2022-10-01T05:02:30.891Z,998.75
2022-10-01T05:03:30.873Z,998.71
2022-10-01T05:04:30.854Z,998.70
2022-10-01T05:05:30.814Z,998.78
2022-10-01T05:06:35.824Z,998.74
2022-10-01T05:07:30.789Z,998.72
2022-10-01T05:08:30.793Z,998.71
2022-10-01T05:09:30.771Z,998.59
2022-10-01T05:10:30.758Z,998.72
2022-10-01T05:11:30.974Z,998.68
2022-10-01T05:12:30.737Z,998.62
2022-10-01T05:13:30.734Z,998.63
2022-10-01T05:14:30.713Z,998.52
2022-10-01T05:15:30.708Z,998.55
2022-10-01T05:16:30.768Z,998.49
2022-10-01T05:17:35.717Z,998.51
2022-10-01T05:18:30.671Z,998.49
2022-10-01T05:19:30.658Z,998.54
2022-10-01T05:20:30.666Z,998.44
2022-10-01T05:21:30.838Z,998.47
2022-10-01T05:22:30.637Z,998.59
2022-10-01T05:23:30.612Z,998.56
2022-10-01T05:24:30.829Z,998.57
2022-10-01T05:25:30.590Z,998.58
2022-10-01T05:26:30.607Z,998.56
2022-10-01T05:27:30.746Z,998.55
2022-10-01T05:28:35.725Z,998.42
2022-10-01T05:29:30.548Z,998.38
2022-10-01T05:30:30.612Z,998.48
2022-10-01T05:31:30.590Z,998.46
2022-10-01T05:32:30.519Z,998.44
2022-10-01T05:33:30.509Z,998.38
2022-10-01T05:34:30.489Z,998.37
2022-10-01T05:35:30.525Z,998.40
2022-10-01T05:36:30.494Z,998.34
2022-10-01T05:37:30.467Z,998.39
2022-10-01T05:38:30.461Z,998.31
2022-10-01T05:39:35.505Z,998.43
2022-10-01T05:40:30.424Z,998.37
2022-10-01T05:41:30.417Z,998.24
2022-10-01T05:42:30.444Z,998.32
2022-10-01T05:43:30.419Z,998.37
2022-10-01T05:44:30.391Z,998.41
2022-10-01T05:45:30.432Z,998.33
2022-10-01T05:46:30.359Z,998.40
2022-10-01T05:47:30.346Z,998.44
2022-10-01T05:48:30.434Z,998.42
2022-10-01T05:49:30.323Z,998.35
2022-10-01T05:50:35.335Z,998.40
2022-10-01T05:51:30.341Z,998.38
2022-10-01T05:52:30.312Z,998.46
2022-10-01T05:53:30.315Z,998.40
2022-10-01T05:54:30.272Z,998.39
2022-10-01T05:55:30.261Z,998.38
2022-10-01T05:56:30.309Z,998.41
2022-10-01T05:57:30.234Z,998.42
2022-10-01T05:58:30.239Z,998.43
2022-10-01T05:59:32.020Z,998.50
2022-10-01T06:00:30.207Z,998.52
2022-10-01T06:01:35.485Z,998.44
2022-10-01T06:02:30.343Z,998.49
2022-10-01T06:03:30.223Z,998.44
2022-10-01T06:04:30.159Z,998.43
2022-10-01T06:05:30.159Z,998.48
2022-10-01T06:06:30.149Z,998.38
2022-10-01T06:07:30.130Z,998.42
2022-10-01T06:08:30.174Z,998.32
2022-10-01T06:09:30.118Z,998.33
2022-10-01T06:10:30.110Z,998.28
2022-10-01T06:11:30.080Z,998.27
2022-10-01T06:12:35.093Z,998.28
2022-10-01T06:13:30.072Z,998.29
2022-10-01T06:14:30.049Z,998.28
2022-10-01T06:15:30.048Z,998.26
2022-10-01T06:16:30.066Z,998.25
2022-10-01T06:17:30.013Z,998.29
2022-10-01T06:18:30.017Z,998.30
2022-10-01T06:19:29.991Z,998.29
2022-10-01T06:20:29.981Z,998.30
2022-10-01T06:21:29.969Z,998.28
2022-10-01T06:22:29.973Z,998.27
2022-10-01T06:23:35.026Z,998.27
2022-10-01T06:24:29.942Z,998.26
2022-10-01T06:25:29.924Z,998.25
2022-10-01T06:26:29.925Z,998.23
2022-10-01T06:27:29.902Z,998.25
2022-10-01T06:28:29.962Z,998.25
2022-10-01T06:29:29.883Z,998.25
2022-10-01T06:30:29.871Z,998.18
2022-10-01T06:31:29.977Z,998.23
2022-10-01T06:32:34.668Z,998.16
2022-10-01T06:33:30.853Z,998.14
2022-10-01T06:34:34.851Z,998.12
2022-10-01T06:35:29.816Z,998.12
2022-10-01T06:36:29.806Z,998.17
2022-10-01T06:37:29.858Z,998.13
2022-10-01T06:38:29.796Z,998.13
2022-10-01T06:39:29.803Z,998.12
2022-10-01T06:40:29.782Z,998.06
2022-10-01T06:41:29.790Z,998.06
2022-10-01T06:42:29.764Z,998.06
2022-10-01T06:43:29.776Z,998.05
2022-10-01T06:44:29.719Z,998.06
2022-10-01T06:45:34.805Z,998.08
2022-10-01T06:46:29.698Z,998.07
2022-10-01T06:47:29.686Z,998.09
2022-10-01T06:48:29.682Z,998.04
2022-10-01T06:49:29.660Z,998.02
2022-10-01T06:50:29.649Z,998.06
2022-10-01T06:51:29.639Z,998.09
2022-10-01T06:52:29.631Z,998.12
2022-10-01T06:53:29.667Z,998.16
2022-10-01T06:54:29.607Z,998.10
2022-10-01T06:55:29.617Z,998.12
2022-10-01T06:56:34.611Z,998.10
2022-10-01T06:57:29.573Z,998.07
2022-10-01T06:58:29.626Z,998.15
2022-10-01T06:59:29.552Z,998.12
2022-10-01T07:00:29.551Z,998.15
2022-10-01T07:01:29.592Z,998.16
2022-10-01T07:02:29.556Z,998.18
2022-10-01T07:03:29.519Z,998.15
2022-10-01T07:04:29.509Z,998.24
2022-10-01T07:05:29.486Z,998.30
2022-10-01T07:06:29.477Z,998.29
2022-10-01T07:07:34.485Z,998.31
2022-10-01T07:08:29.462Z,998.25
2022-10-01T07:09:29.443Z,998.18
2022-10-01T07:10:29.428Z,998.30
2022-10-01T07:11:29.436Z,998.25
2022-10-01T07:12:29.403Z,998.22
2022-10-01T07:13:29.498Z,998.25
2022-10-01T07:14:29.589Z,998.17
2022-10-01T07:15:29.389Z,998.19
2022-10-01T07:16:29.461Z,998.13
2022-10-01T07:17:29.352Z,998.17
2022-10-01T07:18:34.550Z,998.22
2022-10-01T07:19:29.330Z,998.17
2022-10-01T07:20:29.321Z,998.11
2022-10-01T07:21:29.341Z,998.18
2022-10-01T07:22:29.293Z,998.19
2022-10-01T07:23:29.296Z,998.21
2022-10-01T07:24:29.275Z,998.15
2022-10-01T07:25:29.264Z,998.17
2022-10-01T07:26:29.264Z,998.18
2022-10-01T07:27:29.265Z,998.18
2022-10-01T07:28:29.314Z,998.14
2022-10-01T07:29:34.240Z,998.11
2022-10-01T07:30:29.212Z,998.14
2022-10-01T07:31:29.241Z,998.03
2022-10-01T07:32:29.184Z,998.08
2022-10-01T07:33:29.194Z,998.02
2022-10-01T07:34:29.161Z,997.96
2022-10-01T07:35:29.153Z,997.99
2022-10-01T07:36:29.140Z,997.96
2022-10-01T07:37:29.170Z,997.92
2022-10-01T07:38:29.135Z,997.93
2022-10-01T07:39:29.175Z,997.95
2022-10-01T07:40:34.118Z,998.04
2022-10-01T07:41:29.090Z,997.97
2022-10-01T07:42:29.077Z,997.96
2022-10-01T07:43:29.100Z,997.86
2022-10-01T07:44:29.077Z,997.99
2022-10-01T07:45:29.075Z,997.99
2022-10-01T07:46:32.696Z,997.94
2022-10-01T07:47:30.019Z,997.93
2022-10-01T07:48:29.028Z,998.01
2022-10-01T07:49:28.997Z,998.12
2022-10-01T07:50:28.984Z,998.20
2022-10-01T07:51:34.318Z,998.14
2022-10-01T07:52:28.963Z,998.12
2022-10-01T07:53:28.963Z,998.16
2022-10-01T07:54:28.942Z,998.10
2022-10-01T07:55:28.930Z,998.13
2022-10-01T07:56:28.987Z,998.13
2022-10-01T07:57:28.910Z,998.03
2022-10-01T07:58:28.910Z,998.09
2022-10-01T07:59:28.910Z,998.15
2022-10-01T08:00:28.877Z,998.16
2022-10-01T08:01:29.069Z,998.04
2022-10-01T08:02:33.939Z,998.08
2022-10-01T08:03:28.855Z,998.03
2022-10-01T08:04:28.832Z,998.07
2022-10-01T08:05:28.818Z,997.98
2022-10-01T08:06:28.814Z,997.96
2022-10-01T08:07:28.796Z,998.15
2022-10-01T08:08:28.805Z,998.10
2022-10-01T08:09:28.779Z,998.25
2022-10-01T08:10:28.763Z,998.21
2022-10-01T08:11:28.759Z,998.28
2022-10-01T08:12:28.739Z,998.23
2022-10-01T08:13:33.827Z,998.18
2022-10-01T08:14:28.742Z,998.14
2022-10-01T08:15:28.725Z,998.10
2022-10-01T08:16:28.722Z,998.11
2022-10-01T08:17:29.689Z,998.10
2022-10-01T08:18:28.694Z,998.11
2022-10-01T08:19:28.667Z,998.08
2022-10-01T08:20:28.651Z,998.10
2022-10-01T08:21:28.645Z,998.07
2022-10-01T08:22:28.631Z,998.01
2022-10-01T08:23:28.649Z,997.92
2022-10-01T08:24:33.634Z,998.01
2022-10-01T08:25:28.613Z,997.96
2022-10-01T08:26:28.606Z,998.02
2022-10-01T08:27:28.578Z,998.07
2022-10-01T08:28:28.704Z,997.91
2022-10-01T08:29:28.568Z,997.86
2022-10-01T08:30:28.542Z,997.92
2022-10-01T08:31:28.613Z,997.89
2022-10-01T08:32:28.541Z,997.92
2022-10-01T08:33:28.530Z,997.88
2022-10-01T08:34:28.522Z,997.83
2022-10-01T08:35:33.511Z,997.72
2022-10-01T08:36:28.473Z,997.70
2022-10-01T08:37:28.463Z,997.68
2022-10-01T08:38:28.450Z,997.53
2022-10-01T08:39:28.455Z,997.38
2022-10-01T08:40:28.428Z,997.39
2022-10-01T08:41:28.723Z,997.30
2022-10-01T08:42:28.504Z,997.33
2022-10-01T08:43:28.410Z,997.34
2022-10-01T08:44:28.396Z,997.30
2022-10-01T08:45:28.577Z,997.15
2022-10-01T08:46:33.399Z,997.28
2022-10-01T08:47:28.355Z,997.51
2022-10-01T08:48:28.357Z,997.75
2022-10-01T08:49:28.343Z,997.84
2022-10-01T08:50:28.332Z,998.02
2022-10-01T08:51:28.309Z,998.07
2022-10-01T08:52:28.302Z,997.96
2022-10-01T08:53:28.286Z,998.04
2022-10-01T08:54:28.284Z,998.04
2022-10-01T08:55:28.264Z,998.07
2022-10-01T08:56:28.252Z,998.10
2022-10-01T08:57:33.282Z,998.10
2022-10-01T08:58:28.230Z,998.05
2022-10-01T08:59:28.230Z,998.01
2022-10-01T09:00:28.208Z,998.00
2022-10-01T09:01:28.263Z,997.98
2022-10-01T09:02:28.235Z,997.87
2022-10-01T09:03:28.181Z,997.86
2022-10-01T09:04:28.272Z,997.85
2022-10-01T09:05:28.154Z,997.88
2022-10-01T09:06:28.140Z,997.92
2022-10-01T09:07:28.133Z,997.89
2022-10-01T09:08:33.141Z,997.89
2022-10-01T09:09:28.133Z,997.78
2022-10-01T09:10:28.100Z,997.69
2022-10-01T09:11:28.086Z,997.69
2022-10-01T09:12:28.073Z,997.66
2022-10-01T09:13:28.064Z,997.67
2022-10-01T09:14:28.063Z,997.64
2022-10-01T09:15:28.043Z,997.65
2022-10-01T09:16:28.072Z,997.73
2022-10-01T09:17:28.023Z,997.65
2022-10-01T09:18:28.026Z,997.77
2022-10-01T09:19:33.029Z,997.91
2022-10-01T09:20:27.997Z,998.04
2022-10-01T09:21:27.972Z,998.03
2022-10-01T09:22:27.963Z,998.01
2022-10-01T09:23:27.954Z,998.08
2022-10-01T09:24:27.966Z,998.01
2022-10-01T09:25:27.928Z,998.05
2022-10-01T09:26:27.915Z,998.05
2022-10-01T09:27:27.906Z,998.03
2022-10-01T09:28:28.003Z,998.00
2022-10-01T09:29:27.902Z,998.03
2022-10-01T09:30:32.894Z,998.03
2022-10-01T09:31:27.934Z,998.06
2022-10-01T09:32:27.856Z,998.07
2022-10-01T09:33:27.838Z,998.10
2022-10-01T09:34:27.857Z,998.10
2022-10-01T09:35:27.841Z,998.11
2022-10-01T09:36:27.807Z,998.16
2022-10-01T09:37:27.798Z,998.13
2022-10-01T09:38:27.784Z,998.09
2022-10-01T09:39:27.792Z,998.10
2022-10-01T09:40:27.770Z,998.13
2022-10-01T09:41:33.122Z,998.10
2022-10-01T09:42:27.740Z,998.00
2022-10-01T09:43:27.751Z,998.04
2022-10-01T09:44:27.717Z,997.90
2022-10-01T09:45:27.818Z,997.94
2022-10-01T09:46:27.699Z,997.98
2022-10-01T09:47:28.648Z,997.91
2022-10-01T09:48:27.672Z,997.90
2022-10-01T09:49:27.692Z,997.93
2022-10-01T09:50:27.674Z,998.05
2022-10-01T09:51:27.639Z,998.13
2022-10-01T09:52:32.656Z,998.09
2022-10-01T09:53:27.618Z,998.02
2022-10-01T09:54:27.620Z,998.07
2022-10-01T09:55:27.593Z,998.00
2022-10-01T09:56:27.590Z,998.12
2022-10-01T09:57:27.573Z,998.09
2022-10-01T09:58:27.558Z,998.03
2022-10-01T09:59:27.563Z,998.01
2022-10-01T10:00:27.569Z,998.05
2022-10-01T10:01:27.525Z,998.09
2022-10-01T10:02:27.654Z,998.10
2022-10-01T10:03:32.689Z,998.07
2022-10-01T10:04:27.521Z,998.12
2022-10-01T10:05:27.481Z,998.12
2022-10-01T10:06:27.506Z,998.06
2022-10-01T10:07:27.469Z,998.15
2022-10-01T10:08:27.461Z,998.12
2022-10-01T10:09:27.446Z,998.12
2022-10-01T10:10:27.432Z,998.12
2022-10-01T10:11:27.414Z,998.03
2022-10-01T10:12:27.400Z,998.07
2022-10-01T10:13:27.394Z,998.13
2022-10-01T10:14:32.417Z,998.09
2022-10-01T10:15:27.369Z,998.15
2022-10-01T10:16:27.416Z,998.20
2022-10-01T10:17:27.353Z,998.08
2022-10-01T10:18:27.333Z,998.08
2022-10-01T10:19:27.354Z,998.15
2022-10-01T10:20:27.313Z,998.25
2022-10-01T10:21:27.303Z,998.20
2022-10-01T10:22:27.318Z,998.18
2022-10-01T10:23:27.278Z,998.17
2022-10-01T10:24:27.292Z,998.19
2022-10-01T10:25:32.277Z,998.15
2022-10-01T10:26:27.244Z,998.21
2022-10-01T10:27:27.236Z,998.18
2022-10-01T10:28:27.251Z,998.13
2022-10-01T10:29:27.235Z,998.10
2022-10-01T10:30:27.215Z,998.13
2022-10-01T10:31:27.269Z,998.22
2022-10-01T10:32:27.179Z,998.19
2022-10-01T10:33:27.172Z,998.20
2022-10-01T10:34:27.164Z,998.21
2022-10-01T10:35:27.143Z,998.16
2022-10-01T10:36:32.363Z,998.23
2022-10-01T10:37:27.154Z,998.22
2022-10-01T10:38:27.159Z,998.26
2022-10-01T10:39:27.113Z,998.30
2022-10-01T10:40:29.579Z,998.32
2022-10-01T10:41:27.084Z,998.32
2022-10-01T10:42:27.096Z,998.31
2022-10-01T10:43:27.065Z,998.34
2022-10-01T10:44:27.072Z,998.33
2022-10-01T10:45:27.040Z,998.35
2022-10-01T10:46:27.088Z,998.35
2022-10-01T10:47:32.041Z,998.35
2022-10-01T10:48:26.998Z,998.39
2022-10-01T10:49:27.003Z,998.36
2022-10-01T10:50:26.976Z,998.40
2022-10-01T10:51:26.974Z,998.43
2022-10-01T10:52:26.960Z,998.40
2022-10-01T10:53:26.952Z,998.41
2022-10-01T10:54:26.960Z,998.42
2022-10-01T10:55:26.921Z,998.39
2022-10-01T10:56:26.910Z,998.40
2022-10-01T10:57:26.899Z,998.40
2022-10-01T10:58:31.909Z,998.43
2022-10-01T10:59:26.891Z,998.44
2022-10-01T11:00:26.877Z,998.45
2022-10-01T11:01:26.910Z,998.45
2022-10-01T11:02:26.904Z,998.40
2022-10-01T11:03:26.843Z,998.36
2022-10-01T11:04:26.831Z,998.35
2022-10-01T11:05:26.811Z,998.52
2022-10-01T11:06:26.796Z,998.47
2022-10-01T11:07:26.808Z,998.48
2022-10-01T11:08:26.780Z,998.50
2022-10-01T11:09:31.817Z,998.52
2022-10-01T11:10:26.762Z,998.45
2022-10-01T11:11:26.741Z,998.44
2022-10-01T11:12:26.728Z,998.40
2022-10-01T11:13:26.720Z,998.48
2022-10-01T11:14:26.721Z,998.48
2022-10-01T11:15:26.724Z,998.38
2022-10-01T11:16:26.733Z,998.41
2022-10-01T11:17:26.683Z,998.38
2022-10-01T11:18:26.673Z,998.40
2022-10-01T11:19:26.651Z,998.45
2022-10-01T11:20:31.677Z,998.47
2022-10-01T11:21:26.639Z,998.42
2022-10-01T11:22:26.618Z,998.43
2022-10-01T11:23:26.606Z,998.45
2022-10-01T11:24:26.595Z,998.43
2022-10-01T11:25:26.617Z,998.36
2022-10-01T11:26:26.574Z,998.47
2022-10-01T11:27:26.575Z,998.56
2022-10-01T11:28:26.611Z,998.51
2022-10-01T11:29:26.544Z,998.51
2022-10-01T11:30:26.545Z,998.59
2022-10-01T11:31:31.631Z,998.54
2022-10-01T11:32:26.511Z,998.46
2022-10-01T11:33:26.494Z,998.49
2022-10-01T11:34:26.495Z,998.49
2022-10-01T11:35:26.487Z,998.58
2022-10-01T11:36:26.465Z,998.56
2022-10-01T11:37:26.456Z,998.50
2022-10-01T11:38:26.441Z,998.62
2022-10-01T11:39:26.439Z,998.58
2022-10-01T11:40:26.429Z,998.61
2022-10-01T11:41:26.424Z,998.64
2022-10-01T11:42:31.420Z,998.55
2022-10-01T11:43:26.387Z,998.58
2022-10-01T11:44:26.373Z,998.56
2022-10-01T11:45:26.372Z,998.55
2022-10-01T11:46:26.379Z,998.53
2022-10-01T11:47:26.338Z,998.60
2022-10-01T11:48:26.328Z,998.52
2022-10-01T11:49:26.320Z,998.58
2022-10-01T11:50:26.321Z,998.64
2022-10-01T11:51:26.375Z,998.59
2022-10-01T11:52:26.284Z,998.60
2022-10-01T11:53:31.293Z,998.53
2022-10-01T11:54:26.262Z,998.53
2022-10-01T11:55:26.265Z,998.51
2022-10-01T11:56:26.248Z,998.49
2022-10-01T11:57:26.245Z,998.59
2022-10-01T11:58:26.220Z,998.60
2022-10-01T11:59:26.207Z,998.57
2022-10-01T12:00:27.422Z,998.65
2022-10-01T12:01:26.185Z,998.55
2022-10-01T12:02:26.248Z,998.65
2022-10-01T12:03:26.158Z,998.61
2022-10-01T12:04:31.171Z,998.73
2022-10-01T12:05:26.237Z,998.65
2022-10-01T12:06:34.321Z,998.62
2022-10-01T12:07:27.117Z,998.63
2022-10-01T12:08:26.105Z,998.70
2022-10-01T12:09:26.092Z,998.61
2022-10-01T12:10:26.097Z,998.68
2022-10-01T12:11:26.072Z,998.70
2022-10-01T12:12:26.059Z,998.68
2022-10-01T12:13:26.127Z,998.72
2022-10-01T12:14:26.041Z,998.75
2022-10-01T12:15:31.059Z,998.74
2022-10-01T12:16:26.106Z,998.68
2022-10-01T12:17:26.002Z,998.76
2022-10-01T12:18:25.993Z,998.77
2022-10-01T12:19:25.979Z,998.69
2022-10-01T12:20:25.984Z,998.69
2022-10-01T12:21:25.974Z,998.71
2022-10-01T12:22:25.949Z,998.76
2022-10-01T12:23:25.936Z,998.59
2022-10-01T12:24:25.926Z,998.62
2022-10-01T12:25:25.927Z,998.71
2022-10-01T12:26:30.925Z,998.71
2022-10-01T12:27:25.890Z,998.71
2022-10-01T12:28:26.002Z,998.61
2022-10-01T12:29:25.889Z,998.63
2022-10-01T12:30:25.875Z,998.67
2022-10-01T12:31:25.868Z,998.69
2022-10-01T12:32:25.836Z,998.73
2022-10-01T12:33:25.828Z,998.77
2022-10-01T12:34:25.818Z,998.65
2022-10-01T12:35:25.818Z,998.72
2022-10-01T12:36:25.795Z,998.69
2022-10-01T12:37:30.801Z,998.68
2022-10-01T12:38:25.768Z,998.75
2022-10-01T12:39:25.756Z,998.69
2022-10-01T12:40:25.759Z,998.64
2022-10-01T12:41:25.751Z,998.74
2022-10-01T12:42:25.725Z,998.69
2022-10-01T12:43:25.710Z,998.67
2022-10-01T12:44:25.701Z,998.68
2022-10-01T12:45:25.716Z,998.65
2022-10-01T12:46:25.839Z,998.66
2022-10-01T12:47:25.666Z,998.63
2022-10-01T12:48:30.677Z,998.60
2022-10-01T12:49:25.651Z,998.70
2022-10-01T12:50:25.644Z,998.68
2022-10-01T12:51:25.621Z,998.70
2022-10-01T12:52:25.611Z,998.73
2022-10-01T12:53:25.599Z,998.72
2022-10-01T12:54:25.589Z,998.69
2022-10-01T12:55:25.586Z,998.65
2022-10-01T12:56:25.566Z,998.68
2022-10-01T12:57:25.552Z,998.67
2022-10-01T12:58:25.543Z,998.68
2022-10-01T12:59:30.554Z,998.71
2022-10-01T13:00:25.532Z,998.71
2022-10-01T13:01:25.641Z,998.66
2022-10-01T13:02:25.569Z,998.71
2022-10-01T13:03:25.485Z,998.75
2022-10-01T13:04:25.477Z,998.82
2022-10-01T13:05:25.463Z,998.83
2022-10-01T13:06:25.466Z,998.87
2022-10-01T13:07:25.441Z,998.83
2022-10-01T13:08:25.434Z,998.80
2022-10-01T13:09:25.422Z,998.93
2022-10-01T13:10:30.441Z,998.90
2022-10-01T13:11:25.408Z,998.84
2022-10-01T13:12:25.391Z,998.91
2022-10-01T13:13:25.377Z,998.86
2022-10-01T13:14:25.370Z,998.83
2022-10-01T13:15:25.352Z,998.81
2022-10-01T13:16:25.422Z,998.88
2022-10-01T13:17:25.352Z,998.88
2022-10-01T13:18:25.324Z,998.90
2022-10-01T13:19:25.311Z,998.90
2022-10-01T13:20:25.317Z,998.92
2022-10-01T13:21:30.345Z,998.91
2022-10-01T13:22:25.378Z,998.92
2022-10-01T13:23:25.266Z,998.89
2022-10-01T13:24:25.254Z,998.99
2022-10-01T13:25:25.241Z,999.04
2022-10-01T13:26:25.242Z,998.97
2022-10-01T13:27:25.219Z,999.01
2022-10-01T13:28:25.235Z,999.03
2022-10-01T13:29:25.200Z,998.94
2022-10-01T13:30:25.194Z,998.97
2022-10-01T13:31:25.269Z,999.00
2022-10-01T13:32:30.208Z,999.01
2022-10-01T13:33:25.214Z,998.88
2022-10-01T13:34:25.146Z,998.97
2022-10-01T13:35:25.134Z,999.00
2022-10-01T13:36:25.136Z,998.94
2022-10-01T13:37:25.112Z,999.06
2022-10-01T13:38:25.105Z,999.01
2022-10-01T13:39:25.914Z,999.01
2022-10-01T13:40:25.081Z,999.08
2022-10-01T13:41:25.079Z,999.05
2022-10-01T13:42:25.057Z,999.07
2022-10-01T13:43:30.093Z,999.00
2022-10-01T13:44:25.041Z,999.04
2022-10-01T13:45:25.024Z,998.97
2022-10-01T13:46:25.099Z,998.99
2022-10-01T13:47:25.007Z,999.04
2022-10-01T13:48:25.009Z,998.98
2022-10-01T13:49:24.979Z,999.02
2022-10-01T13:50:24.969Z,998.93
2022-10-01T13:51:24.956Z,998.88
2022-10-01T13:52:25.045Z,998.89
2022-10-01T13:53:24.939Z,998.88
2022-10-01T13:54:29.946Z,998.87
2022-10-01T13:55:24.911Z,998.87
2022-10-01T13:56:24.904Z,998.92
2022-10-01T13:57:24.906Z,998.90
2022-10-01T13:58:24.880Z,998.91
2022-10-01T13:59:24.870Z,999.00
2022-10-01T14:00:24.863Z,998.90
2022-10-01T14:01:24.892Z,999.04
2022-10-01T14:02:24.945Z,999.01
2022-10-01T14:03:24.824Z,998.99
2022-10-01T14:04:24.832Z,999.04
2022-10-01T14:05:29.824Z,999.05
2022-10-01T14:06:24.800Z,999.08
2022-10-01T14:07:24.792Z,999.12
2022-10-01T14:08:24.779Z,999.14
2022-10-01T14:09:24.762Z,999.14
2022-10-01T14:10:24.755Z,999.17
2022-10-01T14:11:24.748Z,999.16
2022-10-01T14:12:24.742Z,999.16
2022-10-01T14:13:24.715Z,999.14
2022-10-01T14:14:24.706Z,999.18
2022-10-01T14:15:24.693Z,999.21
2022-10-01T14:16:29.730Z,999.24
2022-10-01T14:17:24.672Z,999.23
2022-10-01T14:18:24.661Z,999.27
2022-10-01T14:19:24.649Z,999.21
2022-10-01T14:20:24.662Z,999.25
2022-10-01T14:21:24.634Z,999.20
2022-10-01T14:22:24.624Z,999.30
2022-10-01T14:23:24.602Z,999.23
2022-10-01T14:24:24.594Z,999.31
2022-10-01T14:25:24.580Z,999.29
2022-10-01T14:26:24.581Z,999.21
2022-10-01T14:27:29.579Z,999.26
2022-10-01T14:28:24.648Z,999.28
2022-10-01T14:29:24.536Z,999.28
2022-10-01T14:30:24.526Z,999.37
2022-10-01T14:31:24.593Z,999.24
2022-10-01T14:32:24.511Z,999.23
2022-10-01T14:33:24.491Z,999.23
2022-10-01T14:34:24.481Z,999.32
2022-10-01T14:35:24.467Z,999.24
2022-10-01T14:36:24.477Z,999.26
2022-10-01T14:37:24.459Z,999.29
2022-10-01T14:38:29.460Z,999.32
2022-10-01T14:39:24.422Z,999.30
2022-10-01T14:40:24.412Z,999.31
2022-10-01T14:41:24.400Z,999.30
2022-10-01T14:42:24.404Z,999.30
2022-10-01T14:43:24.380Z,999.35
2022-10-01T14:44:24.367Z,999.31
2022-10-01T14:45:24.357Z,999.34
2022-10-01T14:46:24.460Z,999.39
2022-10-01T14:47:24.350Z,999.45
2022-10-01T14:48:24.364Z,999.43
2022-10-01T14:49:31.072Z,999.50
2022-10-01T14:50:24.299Z,999.38
2022-10-01T14:51:24.286Z,999.35
2022-10-01T14:52:24.305Z,999.34
2022-10-01T14:53:24.274Z,999.39
2022-10-01T14:54:24.254Z,999.46
2022-10-01T14:55:24.240Z,999.42
2022-10-01T14:56:24.234Z,999.44
2022-10-01T14:57:24.228Z,999.39
2022-10-01T14:58:24.212Z,999.42
2022-10-01T14:59:24.196Z,999.43
2022-10-01T15:00:29.209Z,999.39
2022-10-01T15:01:24.173Z,999.44
2022-10-01T15:02:24.179Z,999.40
2022-10-01T15:03:24.231Z,999.39
2022-10-01T15:04:24.227Z,999.39
2022-10-01T15:05:24.127Z,999.39
2022-10-01T15:06:24.119Z,999.37
2022-10-01T15:07:24.121Z,999.42
2022-10-01T15:08:24.113Z,999.37
2022-10-01T15:09:24.082Z,999.42
2022-10-01T15:10:24.073Z,999.37
2022-10-01T15:11:29.085Z,999.41
2022-10-01T15:12:24.057Z,999.38
2022-10-01T15:13:24.054Z,999.39
2022-10-01T15:14:24.027Z,999.41
2022-10-01T15:15:24.016Z,999.38
2022-10-01T15:16:24.030Z,999.45
2022-10-01T15:17:23.992Z,999.52
2022-10-01T15:18:23.992Z,999.46
2022-10-01T15:19:23.967Z,999.46
2022-10-01T15:20:23.958Z,999.45
2022-10-01T15:21:23.949Z,999.56
2022-10-01T15:22:28.957Z,999.50
2022-10-01T15:23:23.933Z,999.53
2022-10-01T15:24:23.933Z,999.47
2022-10-01T15:25:23.899Z,999.49
2022-10-01T15:26:23.891Z,999.56
2022-10-01T15:27:23.878Z,999.56
2022-10-01T15:28:23.906Z,999.63
2022-10-01T15:29:23.856Z,999.58
2022-10-01T15:30:23.846Z,999.49
2022-10-01T15:31:23.880Z,999.48
2022-10-01T15:32:23.821Z,999.57
2022-10-01T15:33:28.842Z,999.59
2022-10-01T15:34:23.798Z,999.54
2022-10-01T15:35:23.789Z,999.60
2022-10-01T15:36:23.777Z,999.47
2022-10-01T15:37:23.771Z,999.52
2022-10-01T15:38:23.767Z,999.51
2022-10-01T15:39:23.747Z,999.57
2022-10-01T15:40:23.753Z,999.51
2022-10-01T15:41:31.645Z,999.54
2022-10-01T15:42:24.710Z,999.50
2022-10-01T15:43:23.716Z,999.57
2022-10-01T15:44:28.719Z,999.56
2022-10-01T15:45:23.680Z,999.64
2022-10-01T15:46:23.745Z,999.58
2022-10-01T15:47:23.658Z,999.57
2022-10-01T15:48:23.655Z,999.71
2022-10-01T15:49:23.636Z,999.66
2022-10-01T15:50:23.625Z,999.76
2022-10-01T15:51:23.647Z,999.68
2022-10-01T15:52:23.601Z,999.78
2022-10-01T15:53:23.603Z,999.78
2022-10-01T15:54:23.579Z,999.79
2022-10-01T15:55:28.608Z,999.82
2022-10-01T15:56:23.556Z,999.89
2022-10-01T15:57:23.548Z,999.92
2022-10-01T15:58:23.541Z,999.90
2022-10-01T15:59:23.523Z,999.92
2022-10-01T16:00:23.510Z,999.95
2022-10-01T16:01:23.608Z,1000.00
2022-10-01T16:02:23.558Z,1000.02
2022-10-01T16:03:23.514Z,1000.04
2022-10-01T16:04:23.463Z,1000.03
2022-10-01T16:05:23.456Z,1000.01
2022-10-01T16:06:28.464Z,1000.03
2022-10-01T16:07:23.441Z,999.98
2022-10-01T16:08:23.439Z,1000.05
2022-10-01T16:09:23.411Z,1000.05
2022-10-01T16:10:23.400Z,1000.00
2022-10-01T16:11:23.407Z,1000.09
2022-10-01T16:12:23.377Z,1000.11
2022-10-01T16:13:23.379Z,1000.11
2022-10-01T16:14:23.355Z,1000.08
2022-10-01T16:15:23.347Z,1000.01
2022-10-01T16:16:23.395Z,1000.07
2022-10-01T16:17:28.366Z,1000.07
2022-10-01T16:18:23.322Z,1000.10
2022-10-01T16:19:23.302Z,1000.04
2022-10-01T16:20:23.298Z,999.96
2022-10-01T16:21:23.278Z,1000.02
2022-10-01T16:22:23.266Z,999.99
2022-10-01T16:23:23.267Z,1000.06
2022-10-01T16:24:23.251Z,999.99
2022-10-01T16:25:23.234Z,1000.03
2022-10-01T16:26:23.222Z,1000.06
2022-10-01T16:27:23.236Z,1000.19